sensor_id;sensor_type;location;lat;lon;timestamp;P1;durP1;ratioP1;P2;durP2;ratioP2
24259;SDS011;12384;48.112;18.418;2022-08-19T00:01:31;8.90;;;8.40;;
24259;SDS011;12384;48.112;18.418;2022-08-19T00:04:04;8.70;;;8.20;;
24259;SDS011;12384;48.112;18.418;2022-08-19T00:06:35;9.50;;;8.95;;
24259;SDS011;12384;48.112;18.418;2022-08-19T00:09:05;9.15;;;8.40;;
24259;SDS011;12384;48.112;18.418;2022-08-19T00:11:36;10.02;;;9.32;;
24259;SDS011;12384;48.112;18.418;2022-08-19T00:14:06;9.27;;;8.67;;
24259;SDS011;12384;48.112;18.418;2022-08-19T00:16:38;8.77;;;8.27;;
24259;SDS011;12384;48.112;18.418;2022-08-19T00:19:10;9.10;;;8.60;;
24259;SDS011;12384;48.112;18.418;2022-08-19T00:21:38;9.45;;;8.75;;
24259;SDS011;12384;48.112;18.418;2022-08-19T00:24:07;9.52;;;8.93;;
24259;SDS011;12384;48.112;18.418;2022-08-19T00:26:37;9.95;;;9.27;;
24259;SDS011;12384;48.112;18.418;2022-08-19T00:29:08;9.60;;;9.00;;
24259;SDS011;12384;48.112;18.418;2022-08-19T00:31:39;9.93;;;9.23;;
24259;SDS011;12384;48.112;18.418;2022-08-19T00:34:09;9.73;;;9.13;;
24259;SDS011;12384;48.112;18.418;2022-08-19T00:36:39;9.88;;;9.18;;
24259;SDS011;12384;48.112;18.418;2022-08-19T00:39:08;9.90;;;9.20;;
24259;SDS011;12384;48.112;18.418;2022-08-19T00:41:38;10.13;;;9.52;;
24259;SDS011;12384;48.112;18.418;2022-08-19T00:44:08;9.40;;;8.80;;
24259;SDS011;12384;48.112;18.418;2022-08-19T00:46:42;9.65;;;9.05;;
24259;SDS011;12384;48.112;18.418;2022-08-19T00:49:24;9.93;;;9.30;;
24259;SDS011;12384;48.112;18.418;2022-08-19T00:51:57;9.43;;;8.70;;
24259;SDS011;12384;48.112;18.418;2022-08-19T00:54:29;10.15;;;9.55;;
24259;SDS011;12384;48.112;18.418;2022-08-19T00:56:59;10.13;;;9.37;;
24259;SDS011;12384;48.112;18.418;2022-08-19T00:59:33;10.68;;;9.98;;
24259;SDS011;12384;48.112;18.418;2022-08-19T01:02:25;10.43;;;9.73;;
24259;SDS011;12384;48.112;18.418;2022-08-19T01:04:55;10.10;;;9.40;;
24259;SDS011;12384;48.112;18.418;2022-08-19T01:07:24;10.33;;;9.63;;
24259;SDS011;12384;48.112;18.418;2022-08-19T01:09:53;11.10;;;10.30;;
24259;SDS011;12384;48.112;18.418;2022-08-19T01:12:21;11.52;;;10.63;;
24259;SDS011;12384;48.112;18.418;2022-08-19T01:14:51;10.70;;;10.00;;
24259;SDS011;12384;48.112;18.418;2022-08-19T01:17:21;12.13;;;11.25;;
24259;SDS011;12384;48.112;18.418;2022-08-19T01:19:51;11.95;;;11.15;;
24259;SDS011;12384;48.112;18.418;2022-08-19T01:22:25;12.85;;;11.85;;
24259;SDS011;12384;48.112;18.418;2022-08-19T01:24:59;12.82;;;11.60;;
24259;SDS011;12384;48.112;18.418;2022-08-19T01:27:38;11.40;;;10.60;;
24259;SDS011;12384;48.112;18.418;2022-08-19T01:30:10;11.80;;;10.80;;
24259;SDS011;12384;48.112;18.418;2022-08-19T01:32:39;11.67;;;10.77;;
24259;SDS011;12384;48.112;18.418;2022-08-19T01:35:10;11.53;;;10.63;;
24259;SDS011;12384;48.112;18.418;2022-08-19T01:37:45;11.65;;;10.80;;
24259;SDS011;12384;48.112;18.418;2022-08-19T01:40:16;11.30;;;10.60;;
24259;SDS011;12384;48.112;18.418;2022-08-19T01:42:46;12.43;;;11.32;;
24259;SDS011;12384;48.112;18.418;2022-08-19T01:45:15;11.93;;;11.13;;
24259;SDS011;12384;48.112;18.418;2022-08-19T01:47:44;12.03;;;11.13;;
24259;SDS011;12384;48.112;18.418;2022-08-19T01:50:18;13.00;;;12.00;;
24259;SDS011;12384;48.112;18.418;2022-08-19T01:52:48;11.73;;;10.93;;
24259;SDS011;12384;48.112;18.418;2022-08-19T01:55:32;13.13;;;11.97;;
24259;SDS011;12384;48.112;18.418;2022-08-19T01:58:07;12.90;;;11.90;;
24259;SDS011;12384;48.112;18.418;2022-08-19T02:00:42;12.40;;;11.40;;
24259;SDS011;12384;48.112;18.418;2022-08-19T02:03:11;12.07;;;11.27;;
24259;SDS011;12384;48.112;18.418;2022-08-19T02:05:40;12.00;;;11.20;;
24259;SDS011;12384;48.112;18.418;2022-08-19T02:08:10;12.98;;;11.98;;
24259;SDS011;12384;48.112;18.418;2022-08-19T02:10:40;12.93;;;11.93;;
24259;SDS011;12384;48.112;18.418;2022-08-19T02:13:10;12.27;;;11.25;;
24259;SDS011;12384;48.112;18.418;2022-08-19T02:15:40;12.23;;;11.23;;
24259;SDS011;12384;48.112;18.418;2022-08-19T02:18:09;11.73;;;10.93;;
24259;SDS011;12384;48.112;18.418;2022-08-19T02:20:38;11.97;;;10.97;;
24259;SDS011;12384;48.112;18.418;2022-08-19T02:23:08;12.70;;;11.80;;
24259;SDS011;12384;48.112;18.418;2022-08-19T02:25:42;12.02;;;11.00;;
24259;SDS011;12384;48.112;18.418;2022-08-19T02:28:11;12.63;;;11.73;;
24259;SDS011;12384;48.112;18.418;2022-08-19T02:30:44;11.80;;;10.97;;
24259;SDS011;12384;48.112;18.418;2022-08-19T02:33:14;12.60;;;11.70;;
24259;SDS011;12384;48.112;18.418;2022-08-19T02:35:43;12.20;;;11.37;;
24259;SDS011;12384;48.112;18.418;2022-08-19T02:38:15;12.13;;;11.32;;
24259;SDS011;12384;48.112;18.418;2022-08-19T02:40:54;11.40;;;10.60;;
24259;SDS011;12384;48.112;18.418;2022-08-19T02:43:25;12.20;;;11.30;;
24259;SDS011;12384;48.112;18.418;2022-08-19T02:45:59;11.87;;;10.87;;
24259;SDS011;12384;48.112;18.418;2022-08-19T02:48:28;12.88;;;11.98;;
24259;SDS011;12384;48.112;18.418;2022-08-19T02:50:59;11.77;;;10.87;;
24259;SDS011;12384;48.112;18.418;2022-08-19T02:53:29;12.10;;;11.10;;
24259;SDS011;12384;48.112;18.418;2022-08-19T02:55:57;12.10;;;11.20;;
24259;SDS011;12384;48.112;18.418;2022-08-19T02:58:26;12.47;;;11.37;;
24259;SDS011;12384;48.112;18.418;2022-08-19T03:00:56;12.07;;;11.25;;
24259;SDS011;12384;48.112;18.418;2022-08-19T03:03:25;12.70;;;11.55;;
24259;SDS011;12384;48.112;18.418;2022-08-19T03:06:04;11.37;;;10.57;;
24259;SDS011;12384;48.112;18.418;2022-08-19T03:08:36;12.82;;;11.82;;
24259;SDS011;12384;48.112;18.418;2022-08-19T03:11:05;12.45;;;11.45;;
24259;SDS011;12384;48.112;18.418;2022-08-19T03:13:34;12.70;;;11.70;;
24259;SDS011;12384;48.112;18.418;2022-08-19T03:16:04;13.20;;;11.93;;
24259;SDS011;12384;48.112;18.418;2022-08-19T03:18:33;12.48;;;11.57;;
24259;SDS011;12384;48.112;18.418;2022-08-19T03:21:01;12.63;;;11.73;;
24259;SDS011;12384;48.112;18.418;2022-08-19T03:23:30;13.40;;;11.90;;
24259;SDS011;12384;48.112;18.418;2022-08-19T03:26:02;13.30;;;12.25;;
24259;SDS011;12384;48.112;18.418;2022-08-19T03:28:41;12.55;;;11.48;;
24259;SDS011;12384;48.112;18.418;2022-08-19T03:31:18;12.50;;;11.57;;
24259;SDS011;12384;48.112;18.418;2022-08-19T03:34:09;12.40;;;11.33;;
24259;SDS011;12384;48.112;18.418;2022-08-19T03:36:39;12.87;;;11.87;;
24259;SDS011;12384;48.112;18.418;2022-08-19T03:39:09;13.68;;;12.30;;
24259;SDS011;12384;48.112;18.418;2022-08-19T03:41:40;13.33;;;12.10;;
24259;SDS011;12384;48.112;18.418;2022-08-19T03:44:12;13.38;;;12.35;;
24259;SDS011;12384;48.112;18.418;2022-08-19T03:46:44;13.27;;;12.27;;
24259;SDS011;12384;48.112;18.418;2022-08-19T03:49:14;13.63;;;12.55;;
24259;SDS011;12384;48.112;18.418;2022-08-19T03:51:44;13.33;;;12.43;;
24259;SDS011;12384;48.112;18.418;2022-08-19T03:54:15;13.23;;;12.23;;
24259;SDS011;12384;48.112;18.418;2022-08-19T03:56:47;13.17;;;12.23;;
24259;SDS011;12384;48.112;18.418;2022-08-19T03:59:18;14.03;;;12.93;;
24259;SDS011;12384;48.112;18.418;2022-08-19T04:01:51;13.98;;;12.75;;
24259;SDS011;12384;48.112;18.418;2022-08-19T04:04:20;13.20;;;12.30;;
24259;SDS011;12384;48.112;18.418;2022-08-19T04:06:54;13.93;;;12.80;;
24259;SDS011;12384;48.112;18.418;2022-08-19T04:09:23;14.10;;;13.00;;
24259;SDS011;12384;48.112;18.418;2022-08-19T04:11:55;13.57;;;12.33;;
24259;SDS011;12384;48.112;18.418;2022-08-19T04:14:25;13.43;;;12.50;;
24259;SDS011;12384;48.112;18.418;2022-08-19T04:16:58;13.18;;;12.13;;
24259;SDS011;12384;48.112;18.418;2022-08-19T04:19:29;12.50;;;11.60;;
24259;SDS011;12384;48.112;18.418;2022-08-19T04:21:58;14.67;;;13.47;;
24259;SDS011;12384;48.112;18.418;2022-08-19T04:24:27;14.23;;;13.23;;
24259;SDS011;12384;48.112;18.418;2022-08-19T04:26:58;13.67;;;12.47;;
24259;SDS011;12384;48.112;18.418;2022-08-19T04:29:27;14.32;;;12.95;;
24259;SDS011;12384;48.112;18.418;2022-08-19T04:31:57;13.07;;;12.17;;
24259;SDS011;12384;48.112;18.418;2022-08-19T04:34:35;13.27;;;12.10;;
24259;SDS011;12384;48.112;18.418;2022-08-19T04:37:25;13.43;;;12.45;;
24259;SDS011;12384;48.112;18.418;2022-08-19T04:40:02;14.20;;;13.00;;
24259;SDS011;12384;48.112;18.418;2022-08-19T04:42:52;13.43;;;12.45;;
24259;SDS011;12384;48.112;18.418;2022-08-19T04:45:21;13.27;;;12.38;;
24259;SDS011;12384;48.112;18.418;2022-08-19T04:47:54;12.93;;;11.88;;
24259;SDS011;12384;48.112;18.418;2022-08-19T04:50:43;14.17;;;12.70;;
24259;SDS011;12384;48.112;18.418;2022-08-19T04:53:12;13.85;;;12.73;;
24259;SDS011;12384;48.112;18.418;2022-08-19T04:55:41;13.93;;;12.73;;
24259;SDS011;12384;48.112;18.418;2022-08-19T04:58:11;12.85;;;12.05;;
24259;SDS011;12384;48.112;18.418;2022-08-19T05:00:40;13.13;;;12.03;;
24259;SDS011;12384;48.112;18.418;2022-08-19T05:03:08;12.93;;;11.77;;
24259;SDS011;12384;48.112;18.418;2022-08-19T05:05:40;13.38;;;12.18;;
24259;SDS011;12384;48.112;18.418;2022-08-19T05:08:11;13.50;;;12.60;;
24259;SDS011;12384;48.112;18.418;2022-08-19T05:10:41;11.73;;;10.82;;
24259;SDS011;12384;48.112;18.418;2022-08-19T05:13:12;13.25;;;12.15;;
24259;SDS011;12384;48.112;18.418;2022-08-19T05:15:41;13.00;;;11.67;;
24259;SDS011;12384;48.112;18.418;2022-08-19T05:18:10;13.13;;;12.10;;
24259;SDS011;12384;48.112;18.418;2022-08-19T05:20:56;13.07;;;11.95;;
24259;SDS011;12384;48.112;18.418;2022-08-19T05:23:42;12.70;;;11.83;;
24259;SDS011;12384;48.112;18.418;2022-08-19T05:26:11;12.15;;;11.27;;
24259;SDS011;12384;48.112;18.418;2022-08-19T05:28:41;13.07;;;11.85;;
24259;SDS011;12384;48.112;18.418;2022-08-19T05:31:10;11.93;;;10.97;;
24259;SDS011;12384;48.112;18.418;2022-08-19T05:33:39;13.45;;;12.18;;
24259;SDS011;12384;48.112;18.418;2022-08-19T05:36:08;11.52;;;10.63;;
24259;SDS011;12384;48.112;18.418;2022-08-19T05:38:36;12.80;;;11.85;;
24259;SDS011;12384;48.112;18.418;2022-08-19T05:41:06;12.43;;;11.52;;
24259;SDS011;12384;48.112;18.418;2022-08-19T05:43:35;12.15;;;11.25;;
24259;SDS011;12384;48.112;18.418;2022-08-19T05:46:06;13.02;;;11.30;;
24259;SDS011;12384;48.112;18.418;2022-08-19T05:48:36;12.27;;;11.38;;
24259;SDS011;12384;48.112;18.418;2022-08-19T05:51:04;11.93;;;11.13;;
24259;SDS011;12384;48.112;18.418;2022-08-19T05:53:34;12.48;;;11.52;;
24259;SDS011;12384;48.112;18.418;2022-08-19T05:56:04;12.60;;;11.57;;
24259;SDS011;12384;48.112;18.418;2022-08-19T05:58:33;12.57;;;11.68;;
24259;SDS011;12384;48.112;18.418;2022-08-19T06:01:03;13.27;;;11.88;;
24259;SDS011;12384;48.112;18.418;2022-08-19T06:03:33;12.15;;;11.13;;
24259;SDS011;12384;48.112;18.418;2022-08-19T06:06:03;13.68;;;12.52;;
24259;SDS011;12384;48.112;18.418;2022-08-19T06:08:34;13.05;;;11.75;;
24259;SDS011;12384;48.112;18.418;2022-08-19T06:11:14;12.73;;;11.48;;
24259;SDS011;12384;48.112;18.418;2022-08-19T06:13:44;12.52;;;11.52;;
24259;SDS011;12384;48.112;18.418;2022-08-19T06:16:25;12.05;;;11.10;;
24259;SDS011;12384;48.112;18.418;2022-08-19T06:18:55;12.48;;;11.35;;
24259;SDS011;12384;48.112;18.418;2022-08-19T06:21:27;12.82;;;11.63;;
24259;SDS011;12384;48.112;18.418;2022-08-19T06:23:57;13.07;;;11.98;;
24259;SDS011;12384;48.112;18.418;2022-08-19T06:26:26;12.18;;;11.27;;
24259;SDS011;12384;48.112;18.418;2022-08-19T06:28:55;13.02;;;12.05;;
24259;SDS011;12384;48.112;18.418;2022-08-19T06:31:26;12.38;;;11.40;;
24259;SDS011;12384;48.112;18.418;2022-08-19T06:33:59;12.90;;;12.00;;
24259;SDS011;12384;48.112;18.418;2022-08-19T06:36:31;12.63;;;11.45;;
24259;SDS011;12384;48.112;18.418;2022-08-19T06:39:02;12.55;;;11.73;;
24259;SDS011;12384;48.112;18.418;2022-08-19T06:41:34;12.40;;;11.45;;
24259;SDS011;12384;48.112;18.418;2022-08-19T06:44:16;11.77;;;10.93;;
24259;SDS011;12384;48.112;18.418;2022-08-19T06:46:46;12.15;;;11.35;;
24259;SDS011;12384;48.112;18.418;2022-08-19T06:49:22;12.10;;;11.18;;
24259;SDS011;12384;48.112;18.418;2022-08-19T06:51:54;11.43;;;10.63;;
24259;SDS011;12384;48.112;18.418;2022-08-19T06:54:24;12.30;;;11.40;;
24259;SDS011;12384;48.112;18.418;2022-08-19T06:56:58;11.80;;;10.90;;
24259;SDS011;12384;48.112;18.418;2022-08-19T06:59:29;11.85;;;10.90;;
24259;SDS011;12384;48.112;18.418;2022-08-19T07:01:59;11.18;;;10.35;;
24259;SDS011;12384;48.112;18.418;2022-08-19T07:04:33;10.80;;;10.10;;
24259;SDS011;12384;48.112;18.418;2022-08-19T07:07:09;11.93;;;10.95;;
24259;SDS011;12384;48.112;18.418;2022-08-19T07:09:47;11.43;;;10.52;;
24259;SDS011;12384;48.112;18.418;2022-08-19T07:12:24;10.95;;;10.15;;
24259;SDS011;12384;48.112;18.418;2022-08-19T07:14:52;10.02;;;9.25;;
24259;SDS011;12384;48.112;18.418;2022-08-19T07:17:21;10.20;;;9.40;;
24259;SDS011;12384;48.112;18.418;2022-08-19T07:19:51;11.90;;;11.10;;
24259;SDS011;12384;48.112;18.418;2022-08-19T07:22:20;11.45;;;10.63;;
24259;SDS011;12384;48.112;18.418;2022-08-19T07:24:50;10.98;;;10.20;;
24259;SDS011;12384;48.112;18.418;2022-08-19T07:27:19;11.07;;;10.18;;
24259;SDS011;12384;48.112;18.418;2022-08-19T07:29:51;9.52;;;8.80;;
24259;SDS011;12384;48.112;18.418;2022-08-19T07:32:25;9.38;;;8.77;;
24259;SDS011;12384;48.112;18.418;2022-08-19T07:34:55;10.60;;;9.60;;
24259;SDS011;12384;48.112;18.418;2022-08-19T07:37:24;10.15;;;9.35;;
24259;SDS011;12384;48.112;18.418;2022-08-19T07:39:58;10.35;;;9.43;;
24259;SDS011;12384;48.112;18.418;2022-08-19T07:42:27;10.32;;;9.43;;
24259;SDS011;12384;48.112;18.418;2022-08-19T07:44:56;10.52;;;9.75;;
24259;SDS011;12384;48.112;18.418;2022-08-19T07:47:25;11.38;;;10.57;;
24259;SDS011;12384;48.112;18.418;2022-08-19T07:50:15;11.05;;;10.15;;
24259;SDS011;12384;48.112;18.418;2022-08-19T07:52:46;10.45;;;9.63;;
24259;SDS011;12384;48.112;18.418;2022-08-19T07:55:17;11.70;;;10.90;;
24259;SDS011;12384;48.112;18.418;2022-08-19T07:58:07;10.95;;;10.13;;
24259;SDS011;12384;48.112;18.418;2022-08-19T08:00:36;10.77;;;10.07;;
24259;SDS011;12384;48.112;18.418;2022-08-19T08:03:05;11.45;;;10.75;;
24259;SDS011;12384;48.112;18.418;2022-08-19T08:05:36;11.38;;;10.57;;
24259;SDS011;12384;48.112;18.418;2022-08-19T08:08:22;10.45;;;9.73;;
24259;SDS011;12384;48.112;18.418;2022-08-19T08:11:20;11.20;;;10.30;;
24259;SDS011;12384;48.112;18.418;2022-08-19T08:13:49;11.43;;;10.45;;
24259;SDS011;12384;48.112;18.418;2022-08-19T08:16:30;10.77;;;10.07;;
24259;SDS011;12384;48.112;18.418;2022-08-19T08:19:05;11.95;;;10.75;;
24259;SDS011;12384;48.112;18.418;2022-08-19T08:21:52;11.38;;;10.43;;
24259;SDS011;12384;48.112;18.418;2022-08-19T08:24:22;11.63;;;10.82;;
24259;SDS011;12384;48.112;18.418;2022-08-19T08:26:54;11.40;;;10.55;;
24259;SDS011;12384;48.112;18.418;2022-08-19T08:29:23;10.77;;;9.98;;
24259;SDS011;12384;48.112;18.418;2022-08-19T08:32:00;10.95;;;10.13;;
24259;SDS011;12384;48.112;18.418;2022-08-19T08:34:40;10.75;;;9.95;;
24259;SDS011;12384;48.112;18.418;2022-08-19T08:37:10;11.05;;;10.05;;
24259;SDS011;12384;48.112;18.418;2022-08-19T08:39:41;10.52;;;9.60;;
24259;SDS011;12384;48.112;18.418;2022-08-19T08:42:11;10.57;;;9.77;;
24259;SDS011;12384;48.112;18.418;2022-08-19T08:44:47;10.15;;;9.45;;
24259;SDS011;12384;48.112;18.418;2022-08-19T08:47:20;11.32;;;10.38;;
24259;SDS011;12384;48.112;18.418;2022-08-19T08:49:54;10.55;;;9.65;;
24259;SDS011;12384;48.112;18.418;2022-08-19T08:52:29;10.57;;;9.88;;
24259;SDS011;12384;48.112;18.418;2022-08-19T08:55:04;10.77;;;9.98;;
24259;SDS011;12384;48.112;18.418;2022-08-19T08:57:37;11.35;;;10.55;;
24259;SDS011;12384;48.112;18.418;2022-08-19T09:00:11;10.30;;;9.60;;
24259;SDS011;12384;48.112;18.418;2022-08-19T09:02:44;10.90;;;10.10;;
24259;SDS011;12384;48.112;18.418;2022-08-19T09:05:16;11.32;;;10.35;;
24259;SDS011;12384;48.112;18.418;2022-08-19T09:07:58;13.90;;;10.07;;
24259;SDS011;12384;48.112;18.418;2022-08-19T09:10:34;10.65;;;9.70;;
24259;SDS011;12384;48.112;18.418;2022-08-19T09:13:12;10.52;;;9.80;;
24259;SDS011;12384;48.112;18.418;2022-08-19T09:15:51;10.55;;;9.10;;
24259;SDS011;12384;48.112;18.418;2022-08-19T09:18:24;10.48;;;9.68;;
24259;SDS011;12384;48.112;18.418;2022-08-19T09:20:55;10.88;;;10.10;;
24259;SDS011;12384;48.112;18.418;2022-08-19T09:23:25;10.93;;;10.13;;
24259;SDS011;12384;48.112;18.418;2022-08-19T09:25:53;10.60;;;9.90;;
24259;SDS011;12384;48.112;18.418;2022-08-19T09:28:24;9.90;;;9.30;;
24259;SDS011;12384;48.112;18.418;2022-08-19T09:30:53;10.40;;;9.50;;
24259;SDS011;12384;48.112;18.418;2022-08-19T09:33:21;10.73;;;9.95;;
24259;SDS011;12384;48.112;18.418;2022-08-19T09:35:50;9.85;;;9.15;;
24259;SDS011;12384;48.112;18.418;2022-08-19T09:38:36;10.30;;;9.52;;
24259;SDS011;12384;48.112;18.418;2022-08-19T09:41:09;10.27;;;9.48;;
24259;SDS011;12384;48.112;18.418;2022-08-19T09:43:41;10.50;;;9.60;;
24259;SDS011;12384;48.112;18.418;2022-08-19T09:46:13;10.32;;;9.60;;
24259;SDS011;12384;48.112;18.418;2022-08-19T09:48:43;10.10;;;9.38;;
24259;SDS011;12384;48.112;18.418;2022-08-19T09:51:15;10.80;;;9.88;;
24259;SDS011;12384;48.112;18.418;2022-08-19T09:53:48;10.15;;;9.50;;
24259;SDS011;12384;48.112;18.418;2022-08-19T09:56:20;9.95;;;9.15;;
24259;SDS011;12384;48.112;18.418;2022-08-19T09:58:50;10.98;;;10.10;;
24259;SDS011;12384;48.112;18.418;2022-08-19T10:01:19;10.65;;;10.05;;
24259;SDS011;12384;48.112;18.418;2022-08-19T10:03:50;11.00;;;10.10;;
24259;SDS011;12384;48.112;18.418;2022-08-19T10:06:21;10.80;;;9.90;;
24259;SDS011;12384;48.112;18.418;2022-08-19T10:09:11;9.98;;;9.38;;
24259;SDS011;12384;48.112;18.418;2022-08-19T10:11:42;8.85;;;8.25;;
24259;SDS011;12384;48.112;18.418;2022-08-19T10:14:20;9.98;;;9.27;;
24259;SDS011;12384;48.112;18.418;2022-08-19T10:16:50;9.40;;;8.70;;
24259;SDS011;12384;48.112;18.418;2022-08-19T10:19:18;9.65;;;8.95;;
24259;SDS011;12384;48.112;18.418;2022-08-19T10:21:51;9.52;;;8.82;;
24259;SDS011;12384;48.112;18.418;2022-08-19T10:24:27;9.82;;;9.23;;
24259;SDS011;12384;48.112;18.418;2022-08-19T10:26:57;10.38;;;9.52;;
24259;SDS011;12384;48.112;18.418;2022-08-19T10:29:26;8.82;;;8.23;;
24259;SDS011;12384;48.112;18.418;2022-08-19T10:31:59;9.75;;;8.93;;
24259;SDS011;12384;48.112;18.418;2022-08-19T10:34:29;10.32;;;9.63;;
24259;SDS011;12384;48.112;18.418;2022-08-19T10:36:58;10.23;;;9.23;;
24259;SDS011;12384;48.112;18.418;2022-08-19T10:39:30;9.70;;;9.00;;
24259;SDS011;12384;48.112;18.418;2022-08-19T10:42:09;9.95;;;9.25;;
24259;SDS011;12384;48.112;18.418;2022-08-19T10:44:39;9.85;;;9.25;;
24259;SDS011;12384;48.112;18.418;2022-08-19T10:47:08;10.27;;;9.48;;
24259;SDS011;12384;48.112;18.418;2022-08-19T10:49:51;10.45;;;9.73;;
24259;SDS011;12384;48.112;18.418;2022-08-19T10:52:39;10.57;;;9.77;;
24259;SDS011;12384;48.112;18.418;2022-08-19T10:55:18;10.23;;;9.52;;
24259;SDS011;12384;48.112;18.418;2022-08-19T10:58:09;10.63;;;9.82;;
24259;SDS011;12384;48.112;18.418;2022-08-19T11:00:39;11.10;;;9.10;;
24259;SDS011;12384;48.112;18.418;2022-08-19T11:03:09;9.82;;;9.07;;
24259;SDS011;12384;48.112;18.418;2022-08-19T11:05:37;11.18;;;10.02;;
24259;SDS011;12384;48.112;18.418;2022-08-19T11:08:07;10.88;;;9.82;;
24259;SDS011;12384;48.112;18.418;2022-08-19T11:10:50;9.73;;;9.10;;
24259;SDS011;12384;48.112;18.418;2022-08-19T11:13:26;10.55;;;9.57;;
24259;SDS011;12384;48.112;18.418;2022-08-19T11:16:01;10.52;;;9.57;;
24259;SDS011;12384;48.112;18.418;2022-08-19T11:18:37;10.63;;;9.82;;
24259;SDS011;12384;48.112;18.418;2022-08-19T11:21:11;11.68;;;10.30;;
24259;SDS011;12384;48.112;18.418;2022-08-19T11:23:41;11.23;;;10.27;;
24259;SDS011;12384;48.112;18.418;2022-08-19T11:26:11;10.65;;;9.88;;
24259;SDS011;12384;48.112;18.418;2022-08-19T11:28:40;10.98;;;10.20;;
24259;SDS011;12384;48.112;18.418;2022-08-19T11:31:09;10.10;;;9.40;;
24259;SDS011;12384;48.112;18.418;2022-08-19T11:33:39;10.27;;;9.48;;
24259;SDS011;12384;48.112;18.418;2022-08-19T11:36:13;9.95;;;9.15;;
24259;SDS011;12384;48.112;18.418;2022-08-19T11:38:43;9.77;;;8.60;;
24259;SDS011;12384;48.112;18.418;2022-08-19T11:41:16;10.18;;;9.18;;
24259;SDS011;12384;48.112;18.418;2022-08-19T11:43:46;9.98;;;9.10;;
24259;SDS011;12384;48.112;18.418;2022-08-19T11:46:16;9.38;;;8.55;;
24259;SDS011;12384;48.112;18.418;2022-08-19T11:48:44;10.35;;;9.40;;
24259;SDS011;12384;48.112;18.418;2022-08-19T11:51:15;9.95;;;9.15;;
24259;SDS011;12384;48.112;18.418;2022-08-19T11:53:45;10.07;;;9.18;;
24259;SDS011;12384;48.112;18.418;2022-08-19T11:56:13;10.20;;;9.35;;
24259;SDS011;12384;48.112;18.418;2022-08-19T11:58:44;9.95;;;9.25;;
24259;SDS011;12384;48.112;18.418;2022-08-19T12:01:13;10.95;;;8.88;;
24259;SDS011;12384;48.112;18.418;2022-08-19T12:03:44;9.73;;;9.00;;
24259;SDS011;12384;48.112;18.418;2022-08-19T12:06:15;10.20;;;9.00;;
24259;SDS011;12384;48.112;18.418;2022-08-19T12:08:45;9.65;;;8.85;;
24259;SDS011;12384;48.112;18.418;2022-08-19T12:11:16;10.50;;;8.32;;
24259;SDS011;12384;48.112;18.418;2022-08-19T12:13:45;10.68;;;8.65;;
24259;SDS011;12384;48.112;18.418;2022-08-19T12:16:16;9.18;;;8.07;;
24259;SDS011;12384;48.112;18.418;2022-08-19T12:18:46;9.25;;;8.55;;
24259;SDS011;12384;48.112;18.418;2022-08-19T12:21:18;9.55;;;8.85;;
24259;SDS011;12384;48.112;18.418;2022-08-19T12:23:49;9.52;;;8.35;;
24259;SDS011;12384;48.112;18.418;2022-08-19T12:26:23;8.98;;;8.30;;
24259;SDS011;12384;48.112;18.418;2022-08-19T12:28:52;10.40;;;8.90;;
24259;SDS011;12384;48.112;18.418;2022-08-19T12:31:21;10.23;;;8.90;;
24259;SDS011;12384;48.112;18.418;2022-08-19T12:33:50;10.65;;;9.75;;
24259;SDS011;12384;48.112;18.418;2022-08-19T12:36:19;10.00;;;9.07;;
24259;SDS011;12384;48.112;18.418;2022-08-19T12:38:48;9.45;;;8.73;;
24259;SDS011;12384;48.112;18.418;2022-08-19T12:41:17;9.50;;;8.60;;
24259;SDS011;12384;48.112;18.418;2022-08-19T12:43:50;10.32;;;9.48;;
24259;SDS011;12384;48.112;18.418;2022-08-19T12:46:18;10.57;;;9.48;;
24259;SDS011;12384;48.112;18.418;2022-08-19T12:48:51;9.88;;;9.02;;
24259;SDS011;12384;48.112;18.418;2022-08-19T12:51:21;10.20;;;9.38;;
24259;SDS011;12384;48.112;18.418;2022-08-19T12:53:53;10.00;;;9.25;;
24259;SDS011;12384;48.112;18.418;2022-08-19T12:56:22;10.80;;;9.70;;
24259;SDS011;12384;48.112;18.418;2022-08-19T12:58:52;10.70;;;9.32;;
24259;SDS011;12384;48.112;18.418;2022-08-19T13:01:20;13.60;;;9.60;;
24259;SDS011;12384;48.112;18.418;2022-08-19T13:03:49;10.77;;;9.80;;
24259;SDS011;12384;48.112;18.418;2022-08-19T13:06:19;9.82;;;8.98;;
24259;SDS011;12384;48.112;18.418;2022-08-19T13:08:48;10.00;;;9.05;;
24259;SDS011;12384;48.112;18.418;2022-08-19T13:11:17;10.43;;;9.43;;
24259;SDS011;12384;48.112;18.418;2022-08-19T13:13:52;11.65;;;10.50;;
24259;SDS011;12384;48.112;18.418;2022-08-19T13:16:21;10.63;;;9.60;;
24259;SDS011;12384;48.112;18.418;2022-08-19T13:18:50;14.95;;;11.05;;
24259;SDS011;12384;48.112;18.418;2022-08-19T13:21:19;16.13;;;11.02;;
24259;SDS011;12384;48.112;18.418;2022-08-19T13:23:51;17.83;;;11.65;;
24259;SDS011;12384;48.112;18.418;2022-08-19T13:26:20;16.88;;;10.82;;
24259;SDS011;12384;48.112;18.418;2022-08-19T13:28:49;31.17;;;12.32;;
24259;SDS011;12384;48.112;18.418;2022-08-19T13:31:51;20.40;;;10.95;;
24259;SDS011;12384;48.112;18.418;2022-08-19T13:34:37;16.48;;;10.35;;
24259;SDS011;12384;48.112;18.418;2022-08-19T13:37:06;14.55;;;10.10;;
24259;SDS011;12384;48.112;18.418;2022-08-19T13:39:34;14.23;;;10.52;;
24259;SDS011;12384;48.112;18.418;2022-08-19T13:42:04;15.35;;;10.43;;
24259;SDS011;12384;48.112;18.418;2022-08-19T13:44:35;19.13;;;11.48;;
24259;SDS011;12384;48.112;18.418;2022-08-19T13:47:04;13.23;;;10.65;;
24259;SDS011;12384;48.112;18.418;2022-08-19T13:49:34;12.40;;;11.00;;
24259;SDS011;12384;48.112;18.418;2022-08-19T13:52:03;15.73;;;10.77;;
24259;SDS011;12384;48.112;18.418;2022-08-19T13:54:33;12.20;;;10.30;;
24259;SDS011;12384;48.112;18.418;2022-08-19T13:57:01;20.23;;;11.70;;
24259;SDS011;12384;48.112;18.418;2022-08-19T13:59:30;14.75;;;10.80;;
24259;SDS011;12384;48.112;18.418;2022-08-19T14:02:00;13.90;;;10.82;;
24259;SDS011;12384;48.112;18.418;2022-08-19T14:04:29;15.07;;;9.98;;
24259;SDS011;12384;48.112;18.418;2022-08-19T14:06:57;11.13;;;10.02;;
24259;SDS011;12384;48.112;18.418;2022-08-19T14:09:26;11.15;;;9.65;;
24259;SDS011;12384;48.112;18.418;2022-08-19T14:11:54;10.57;;;9.68;;
24259;SDS011;12384;48.112;18.418;2022-08-19T14:14:23;13.77;;;9.52;;
24259;SDS011;12384;48.112;18.418;2022-08-19T14:16:52;11.70;;;9.38;;
24259;SDS011;12384;48.112;18.418;2022-08-19T14:19:22;12.38;;;9.48;;
24259;SDS011;12384;48.112;18.418;2022-08-19T14:21:55;10.30;;;9.07;;
24259;SDS011;12384;48.112;18.418;2022-08-19T14:24:24;12.38;;;8.82;;
24259;SDS011;12384;48.112;18.418;2022-08-19T14:26:53;13.50;;;8.88;;
24259;SDS011;12384;48.112;18.418;2022-08-19T14:29:21;10.75;;;8.85;;
24259;SDS011;12384;48.112;18.418;2022-08-19T14:31:50;9.32;;;8.32;;
24259;SDS011;12384;48.112;18.418;2022-08-19T14:34:18;12.52;;;9.30;;
24259;SDS011;12384;48.112;18.418;2022-08-19T14:36:48;10.18;;;9.18;;
24259;SDS011;12384;48.112;18.418;2022-08-19T14:39:17;10.07;;;9.02;;
24259;SDS011;12384;48.112;18.418;2022-08-19T14:41:45;12.50;;;8.88;;
24259;SDS011;12384;48.112;18.418;2022-08-19T14:44:14;10.18;;;9.25;;